Helen Merril — WDF2994 — position and weather

sailwx.info

Track history (hours):
 
Tides and Currents Weather Stations Pressure Air Temp Water Temp Dewpoint Dewpoint Depression Visibility Wind Speed Wind Dir Waves Ship Positions

Helen Merril

Owner: SCF Waxler Marine LLC, St. Rose, LA. More information available from US FCC via Universal Licensing System and Coast Guard Vessel Documentation Center.

Last reported at 2016-Feb-13 12:29 UTC. Time now 2016-Feb-13 15:13 UTC.
Position N 29°34' W 094°25'.

Length 33 m; draft 3 m.

Type: Ship (hazmat cat A). MMSI: 367434260.

Date/timePositionNaut miles runAvg speedWind from/ knotsBaromVisibWave heightAir tempDewpointWater temp
2016-Feb-13 12:29N 29°34' W 094°25'3 2.9
2016-Feb-13 11:32N 29°36' W 094°23'0 0.1
2016-Feb-13 09:29N 29°36' W 094°23'0 0.1
2016-Feb-13 08:32N 29°36' W 094°23'0 0.1
2016-Feb-13 06:30N 29°36' W 094°22'0 0.3
2016-Feb-13 05:32N 29°36' W 094°22'10 4.7
2016-Feb-13 03:19N 29°41' W 094°12'4 5.1
2016-Feb-13 02:33N 29°43' W 094°08'19 4.8
2016-Feb-12 22:31N 29°56' W 093°52'5 5.6
2016-Feb-12 21:32N 29°60' W 093°47'5 5.5
2016-Feb-12 20:34N 30°03' W 093°42'5 5.0
2016-Feb-12 19:33N 30°04' W 093°37'4 3.8
2016-Feb-12 18:33N 30°04' W 093°32'4 4.3
2016-Feb-12 17:33N 30°04' W 093°27'4 4.1
2016-Feb-12 16:33N 30°04' W 093°23'4 3.7
2016-Feb-12 15:33N 30°06' W 093°19'1 0.7
2016-Feb-12 14:33N 30°06' W 093°19'0 0.0
2016-Feb-12 13:33N 30°06' W 093°19'0 0.0
2016-Feb-12 12:33N 30°06' W 093°19'0 0.0
2016-Feb-12 11:33N 30°06' W 093°19'1 1.4
2016-Feb-12 10:33N 30°05' W 093°18'2 1.9
2016-Feb-12 09:33N 30°04' W 093°16'0 0.1
2016-Feb-12 08:34N 30°04' W 093°16'0 0.1
2016-Feb-12 07:34N 30°04' W 093°16'0 0.0
2016-Feb-12 06:33N 30°04' W 093°16'0 0.0
2016-Feb-12 05:33N 30°04' W 093°16'0 0.1
2016-Feb-12 04:33N 30°04' W 093°16'4 3.6
2016-Feb-12 03:33N 30°01' W 093°14'4 4.4
2016-Feb-12 02:33N 29°57' W 093°11'4 4.1
2016-Feb-12 01:33N 29°56' W 093°06'3 3.4
2016-Feb-12 00:33N 29°56' W 093°02'119 3.3
2016-Feb-10 13:03N 29°32' W 090°48'2 4.6
2016-Feb-10 12:33N 29°33' W 090°46'4 3.5
2016-Feb-10 11:33N 29°35' W 090°43'2 2.3
2016-Feb-10 10:33N 29°36' W 090°40'3 3.3
2016-Feb-10 09:34N 29°35' W 090°37'3 3.5
2016-Feb-10 08:33N 29°34' W 090°33'  
2016-Feb-06 04:33N 29°35' W 090°36'4 3.8
2016-Feb-06 03:33N 29°36' W 090°40'2 2.4
2016-Feb-06 02:33N 29°35' W 090°43'3 2.7
2016-Feb-06 01:33N 29°33' W 090°45'1 0.6
2016-Feb-06 00:33N 29°33' W 090°45'0 0.3
2016-Feb-05 23:33N 29°33' W 090°46'1 1.4
2016-Feb-05 22:33N 29°32' W 090°47'115 3.0
2016-Feb-04 08:19N 29°56' W 092°57'3 1.2
2016-Feb-04 05:32N 29°56' W 093°01'5 5.5
2016-Feb-04 04:33N 29°56' W 093°08'5 4.6
2016-Feb-04 03:33N 29°59' W 093°12'4 4.3
2016-Feb-04 02:34N 30°02' W 093°15'4 4.1
2016-Feb-04 01:33N 30°05' W 093°18'1 1.1
2016-Feb-04 00:33N 30°06' W 093°18'0 0.2
2016-Feb-03 23:33N 30°06' W 093°19'5 4.9
2016-Feb-03 22:34N 30°04' W 093°24'6 5.9
2016-Feb-03 21:33N 30°04' W 093°30'6 6.2
2016-Feb-03 20:33N 30°04' W 093°38'  
Track history (hours):
 
Tides and Currents Weather Stations Pressure Air Temp Water Temp Dewpoint Dewpoint Depression Visibility Wind Speed Wind Dir Waves Ship Positions

Helen Merril

Owner: SCF Waxler Marine LLC, St. Rose, LA. More information available from US FCC via Universal Licensing System and Coast Guard Vessel Documentation Center.

Last reported at 2016-Feb-13 12:29 UTC. Time now 2016-Feb-13 15:13 UTC.
Position N 29°34' W 094°25'.

Length 33 m; draft 3 m.

Type: Ship (hazmat cat A). MMSI: 367434260.

Date/timePositionNaut miles runAvg speedWind from/ knotsBaromVisibWave heightAir tempDewpointWater temp
2016-Feb-13 12:29N 29°34' W 094°25'3 2.9
2016-Feb-13 11:32N 29°36' W 094°23'0 0.1
2016-Feb-13 09:29N 29°36' W 094°23'0 0.1
2016-Feb-13 08:32N 29°36' W 094°23'0 0.1
2016-Feb-13 06:30N 29°36' W 094°22'0 0.3
2016-Feb-13 05:32N 29°36' W 094°22'10 4.7
2016-Feb-13 03:19N 29°41' W 094°12'4 5.1
2016-Feb-13 02:33N 29°43' W 094°08'19 4.8
2016-Feb-12 22:31N 29°56' W 093°52'5 5.6
2016-Feb-12 21:32N 29°60' W 093°47'5 5.5
2016-Feb-12 20:34N 30°03' W 093°42'5 5.0
2016-Feb-12 19:33N 30°04' W 093°37'4 3.8
2016-Feb-12 18:33N 30°04' W 093°32'4 4.3
2016-Feb-12 17:33N 30°04' W 093°27'4 4.1
2016-Feb-12 16:33N 30°04' W 093°23'4 3.7
2016-Feb-12 15:33N 30°06' W 093°19'1 0.7
2016-Feb-12 14:33N 30°06' W 093°19'0 0.0
2016-Feb-12 13:33N 30°06' W 093°19'0 0.0
2016-Feb-12 12:33N 30°06' W 093°19'0 0.0
2016-Feb-12 11:33N 30°06' W 093°19'1 1.4
2016-Feb-12 10:33N 30°05' W 093°18'2 1.9
2016-Feb-12 09:33N 30°04' W 093°16'0 0.1
2016-Feb-12 08:34N 30°04' W 093°16'0 0.1
2016-Feb-12 07:34N 30°04' W 093°16'0 0.0
2016-Feb-12 06:33N 30°04' W 093°16'0 0.0
2016-Feb-12 05:33N 30°04' W 093°16'0 0.1
2016-Feb-12 04:33N 30°04' W 093°16'4 3.6
2016-Feb-12 03:33N 30°01' W 093°14'4 4.4
2016-Feb-12 02:33N 29°57' W 093°11'4 4.1
2016-Feb-12 01:33N 29°56' W 093°06'3 3.4
2016-Feb-12 00:33N 29°56' W 093°02'119 3.3
2016-Feb-10 13:03N 29°32' W 090°48'2 4.6
2016-Feb-10 12:33N 29°33' W 090°46'4 3.5
2016-Feb-10 11:33N 29°35' W 090°43'2 2.3
2016-Feb-10 10:33N 29°36' W 090°40'3 3.3
2016-Feb-10 09:34N 29°35' W 090°37'3 3.5
2016-Feb-10 08:33N 29°34' W 090°33'  
2016-Feb-06 04:33N 29°35' W 090°36'4 3.8
2016-Feb-06 03:33N 29°36' W 090°40'2 2.4
2016-Feb-06 02:33N 29°35' W 090°43'3 2.7
2016-Feb-06 01:33N 29°33' W 090°45'1 0.6
2016-Feb-06 00:33N 29°33' W 090°45'0 0.3
2016-Feb-05 23:33N 29°33' W 090°46'1 1.4
2016-Feb-05 22:33N 29°32' W 090°47'115 3.0
2016-Feb-04 08:19N 29°56' W 092°57'3 1.2
2016-Feb-04 05:32N 29°56' W 093°01'5 5.5
2016-Feb-04 04:33N 29°56' W 093°08'5 4.6
2016-Feb-04 03:33N 29°59' W 093°12'4 4.3
2016-Feb-04 02:34N 30°02' W 093°15'4 4.1
2016-Feb-04 01:33N 30°05' W 093°18'1 1.1
2016-Feb-04 00:33N 30°06' W 093°18'0 0.2
2016-Feb-03 23:33N 30°06' W 093°19'5 4.9
2016-Feb-03 22:34N 30°04' W 093°24'6 5.9
2016-Feb-03 21:33N 30°04' W 093°30'6 6.2
2016-Feb-03 20:33N 30°04' W 093°38'  

Dump ship's entire track history